Time;durP1;ratioP1;P1;durP2;ratioP2;P2;SDS_P1;SDS_P2;PMS_P1;PMS_P2;Temp;Humidity;BMP_temperature;BMP_pressure;BME280_temperature;BME280_humidity;BME280_pressure;Samples;Min_cycle;Max_cycle;Signal;HPM_P1;HPM_P2
2022/03/29 00:00:00;;;;;;;40.27;12.03;;;7.70;97.30;;;;;;5030252;28;20835;-85
2022/03/29 00:02:25;;;;;;;32.80;10.57;;;7.70;97.30;;;;;;5031058;28;20196;-85
2022/03/29 00:04:50;;;;;;;34.40;11.30;;;7.60;97.30;;;;;;5030660;28;20208;-86
2022/03/29 00:07:16;;;;;;;35.27;11.47;;;7.60;97.30;;;;;;5030655;28;20651;-86
2022/03/29 00:09:42;;;;;;;32.57;11.67;;;7.60;97.30;;;;;;5030851;28;20180;-86
2022/03/29 00:12:07;;;;;;;41.20;10.93;;;7.60;97.30;;;;;;5030899;28;20299;-86
2022/03/29 00:14:33;;;;;;;36.27;12.70;;;7.50;97.30;;;;;;5030744;28;20204;-85
2022/03/29 00:16:58;;;;;;;35.17;11.53;;;7.50;97.30;;;;;;5031072;28;20679;-85
2022/03/29 00:19:24;;;;;;;24.63;9.93;;;7.40;97.30;;;;;;5040577;22;20236;-86
2022/03/29 00:21:50;;;;;;;34.20;12.93;;;7.40;97.30;;;;;;5021198;28;20601;-87
2022/03/29 00:24:15;;;;;;;32.70;12.33;;;7.30;97.30;;;;;;5017850;28;20453;-87
2022/03/29 00:26:41;;;;;;;32.80;11.30;;;7.30;97.30;;;;;;5026640;28;20267;-85
2022/03/29 00:29:08;;;;;;;29.30;11.20;;;7.20;97.30;;;;;;5026118;28;20241;-87
2022/03/29 00:31:33;;;;;;;29.43;9.40;;;7.20;97.30;;;;;;5009838;28;20185;-87
2022/03/29 00:33:59;;;;;;;35.13;12.20;;;7.10;97.30;;;;;;5026383;28;20470;-87
2022/03/29 00:36:24;;;;;;;35.30;11.40;;;7.10;97.30;;;;;;5006216;28;20174;-87
2022/03/29 00:38:50;;;;;;;27.10;11.60;;;7.10;97.30;;;;;;5006157;28;20747;-87
2022/03/29 00:41:16;;;;;;;26.77;10.40;;;7.10;97.30;;;;;;4991366;28;20368;-85
2022/03/29 00:43:43;;;;;;;34.80;11.23;;;7.00;97.30;;;;;;4982754;28;20465;-84
2022/03/29 00:46:08;;;;;;;33.00;12.67;;;7.00;97.30;;;;;;5007066;28;20432;-87
2022/03/29 00:48:34;;;;;;;32.33;11.10;;;6.90;97.30;;;;;;4990505;28;20495;-87
2022/03/29 00:51:00;;;;;;;36.47;11.43;;;6.90;97.30;;;;;;4990277;28;20729;-87
2022/03/29 00:53:25;;;;;;;34.73;11.70;;;6.90;97.30;;;;;;4989997;28;20178;-86
2022/03/29 00:55:54;;;;;;;27.27;10.90;;;6.80;97.30;;;;;;5006977;28;20555;-86
2022/03/29 00:58:20;;;;;;;31.33;10.50;;;6.80;97.30;;;;;;4990557;28;20205;-87
2022/03/29 01:00:47;;;;;;;33.57;12.17;;;6.80;97.30;;;;;;4995784;28;20922;-87
2022/03/29 01:03:12;;;;;;;26.67;9.90;;;6.80;97.30;;;;;;5009158;28;20412;-86
2022/03/29 01:05:38;;;;;;;33.23;10.70;;;6.80;97.30;;;;;;5014674;28;20421;-86
2022/03/29 01:08:05;;;;;;;29.60;11.47;;;6.70;97.30;;;;;;4990021;28;20190;-88
2022/03/29 01:10:30;;;;;;;31.63;12.93;;;6.70;97.30;;;;;;5005525;28;20177;-87
2022/03/29 01:12:56;;;;;;;43.23;14.30;;;6.70;97.30;;;;;;5010481;28;20470;-86
2022/03/29 01:15:24;;;;;;;44.43;14.40;;;6.70;97.30;;;;;;5010259;28;20201;-87
2022/03/29 01:17:51;;;;;;;39.10;13.97;;;6.70;97.30;;;;;;5005953;28;20273;-86
2022/03/29 01:20:25;;;;;;;38.93;14.43;;;6.70;97.30;;;;;;5006233;28;20863;-87
2022/03/29 01:22:52;;;;;;;37.07;14.03;;;6.60;97.30;;;;;;5005993;28;20417;-87
2022/03/29 01:25:28;;;;;;;29.33;12.50;;;6.60;97.30;;;;;;5006044;28;20436;-86
2022/03/29 01:27:54;;;;;;;37.57;13.40;;;6.60;97.30;;;;;;5006142;28;20417;-87
2022/03/29 01:30:21;;;;;;;33.50;13.23;;;6.60;97.30;;;;;;4990569;28;20420;-84
2022/03/29 01:32:49;;;;;;;40.73;13.57;;;6.60;97.30;;;;;;5006577;28;20707;-85
2022/03/29 01:35:17;;;;;;;34.37;13.17;;;6.50;97.30;;;;;;5008841;28;20463;-87
2022/03/29 01:37:42;;;;;;;34.13;14.10;;;6.50;97.30;;;;;;5008867;28;20477;-85
2022/03/29 01:40:10;;;;;;;38.97;14.40;;;6.50;97.30;;;;;;5009892;28;20440;-87
2022/03/29 01:42:35;;;;;;;35.30;13.40;;;6.50;97.30;;;;;;5008637;28;20323;-87
2022/03/29 01:45:01;;;;;;;36.70;14.57;;;6.50;97.30;;;;;;5009114;28;20462;-87
2022/03/29 01:47:26;;;;;;;35.83;13.27;;;6.50;97.30;;;;;;5008273;28;20177;-87
2022/03/29 01:49:52;;;;;;;33.10;12.03;;;6.50;97.30;;;;;;5009207;28;20193;-85
2022/03/29 01:52:19;;;;;;;33.93;12.20;;;6.60;97.30;;;;;;5008495;28;20185;-87
2022/03/29 01:54:45;;;;;;;34.43;12.47;;;6.60;97.30;;;;;;5009445;28;20463;-85
2022/03/29 01:57:11;;;;;;;36.20;13.03;;;6.60;97.30;;;;;;5009300;28;20511;-87
2022/03/29 02:02:22;;;;;;;40.00;14.20;;;6.70;97.30;;;;;;5010349;28;20428;-86
2022/03/29 02:04:47;;;;;;;37.70;13.93;;;6.70;97.30;;;;;;5008657;28;20926;-87
2022/03/29 02:07:13;;;;;;;46.80;14.60;;;6.80;97.30;;;;;;5009096;28;20177;-86
2022/03/29 02:09:38;;;;;;;36.73;14.50;;;6.80;97.30;;;;;;5008803;28;20235;-86
2022/03/29 02:12:05;;;;;;;41.70;13.83;;;6.80;97.30;;;;;;5008166;28;20177;-87
2022/03/29 02:14:30;;;;;;;37.60;12.90;;;6.90;97.30;;;;;;5008101;28;20459;-87
2022/03/29 02:16:56;;;;;;;42.40;13.80;;;6.90;97.30;;;;;;5016379;28;20408;-89
2022/03/29 02:19:22;;;;;;;31.60;12.40;;;6.90;97.30;;;;;;5007857;28;20233;-89
2022/03/29 02:21:47;;;;;;;37.37;13.73;;;6.90;97.30;;;;;;5005033;28;20671;-88
2022/03/29 02:24:13;;;;;;;38.47;13.07;;;6.90;97.30;;;;;;4988349;28;20186;-86
2022/03/29 02:26:38;;;;;;;38.23;13.37;;;7.00;97.30;;;;;;4988435;28;20205;-87
2022/03/29 02:29:04;;;;;;;37.83;13.67;;;6.90;97.30;;;;;;4989336;28;20197;-86
2022/03/29 02:31:29;;;;;;;38.77;14.73;;;6.90;97.30;;;;;;4989864;28;20761;-86
2022/03/29 02:33:55;;;;;;;34.87;14.23;;;6.90;97.30;;;;;;4988258;28;20220;-87
2022/03/29 02:36:20;;;;;;;40.30;14.53;;;6.90;97.30;;;;;;4988094;28;20189;-86
2022/03/29 02:38:45;;;;;;;45.50;14.63;;;7.00;97.30;;;;;;4988385;28;20198;-88
2022/03/29 02:41:11;;;;;;;40.53;14.43;;;7.00;97.30;;;;;;5004254;28;20174;-86
2022/03/29 02:43:36;;;;;;;39.57;14.00;;;6.90;97.30;;;;;;4989418;28;20529;-86
2022/03/29 02:46:03;;;;;;;41.63;15.57;;;6.90;97.30;;;;;;4989955;28;20182;-84
2022/03/29 02:48:30;;;;;;;44.87;16.47;;;6.90;97.30;;;;;;4991700;28;20367;-87
2022/03/29 02:50:56;;;;;;;45.67;15.03;;;6.90;97.30;;;;;;4989830;28;20449;-86
2022/03/29 02:53:22;;;;;;;43.13;16.77;;;6.90;97.30;;;;;;4992558;28;20455;-86
2022/03/29 02:55:47;;;;;;;41.37;16.27;;;6.90;97.30;;;;;;4992127;28;20911;-87
2022/03/29 02:58:13;;;;;;;47.27;17.27;;;6.90;97.30;;;;;;4992383;28;20204;-86
2022/03/29 03:00:39;;;;;;;46.70;16.90;;;6.90;97.30;;;;;;4993578;28;20286;-86
2022/03/29 03:03:06;;;;;;;42.33;17.00;;;6.90;97.30;;;;;;4991894;28;20182;-86
2022/03/29 03:05:31;;;;;;;42.63;15.97;;;7.00;97.30;;;;;;4991803;28;20715;-84
2022/03/29 03:07:57;;;;;;;41.63;16.47;;;7.00;97.30;;;;;;4991592;28;20425;-86
2022/03/29 03:10:23;;;;;;;48.37;16.80;;;7.00;97.30;;;;;;5006129;28;20193;-89
2022/03/29 03:12:50;;;;;;;45.33;17.07;;;7.00;97.30;;;;;;5008241;28;20676;-87
2022/03/29 03:15:18;;;;;;;41.87;16.60;;;7.00;97.30;;;;;;5007926;28;20479;-88
2022/03/29 03:17:45;;;;;;;43.97;16.20;;;7.00;97.30;;;;;;5008529;28;20425;-89
2022/03/29 03:20:12;;;;;;;55.40;17.27;;;7.10;97.30;;;;;;4992736;28;20465;-89
2022/03/29 03:22:39;;;;;;;37.27;15.93;;;7.10;97.30;;;;;;4992927;28;20496;-88
2022/03/29 03:25:05;;;;;;;38.80;15.30;;;7.10;97.30;;;;;;4992003;28;20425;-87
2022/03/29 03:27:31;;;;;;;46.13;16.50;;;7.10;97.30;;;;;;5007359;28;20435;-87
2022/03/29 03:29:57;;;;;;;45.57;16.73;;;7.10;97.30;;;;;;5007754;28;20527;-87
2022/03/29 03:32:22;;;;;;;45.20;17.90;;;7.10;97.30;;;;;;5007639;28;20668;-88
2022/03/29 03:34:48;;;;;;;40.10;16.30;;;7.00;97.30;;;;;;4992470;28;20205;-86
2022/03/29 03:37:13;;;;;;;43.70;18.00;;;7.00;97.30;;;;;;4991661;28;20182;-86
2022/03/29 03:39:39;;;;;;;47.97;18.10;;;6.90;97.30;;;;;;4991607;28;20587;-86
2022/03/29 03:42:06;;;;;;;42.87;17.00;;;6.90;97.30;;;;;;4991062;28;20182;-89
2022/03/29 03:44:32;;;;;;;43.87;14.73;;;6.90;97.30;;;;;;4991173;28;20799;-87
2022/03/29 03:46:58;;;;;;;51.20;17.83;;;6.90;97.30;;;;;;4991595;28;20882;-89
2022/03/29 03:49:24;;;;;;;46.70;16.33;;;7.00;97.30;;;;;;5007781;28;20749;-88
2022/03/29 03:51:50;;;;;;;44.67;16.90;;;7.00;97.30;;;;;;4990922;28;20649;-87
2022/03/29 03:54:15;;;;;;;41.30;16.70;;;7.00;97.30;;;;;;4990868;28;20464;-89
2022/03/29 03:56:41;;;;;;;42.00;16.60;;;7.00;97.30;;;;;;4990635;28;20202;-89
2022/03/29 03:59:06;;;;;;;44.33;16.17;;;7.00;97.30;;;;;;4991118;28;20795;-90
2022/03/29 04:01:34;;;;;;;52.63;16.80;;;6.90;97.30;;;;;;4991182;28;20653;-90
2022/03/29 04:03:59;;;;;;;45.70;15.13;;;6.80;97.30;;;;;;4992614;28;20209;-89
2022/03/29 04:06:25;;;;;;;39.10;14.70;;;6.80;97.30;;;;;;4991196;28;20463;-89
2022/03/29 04:08:50;;;;;;;38.43;14.83;;;6.70;97.30;;;;;;4995715;28;20193;-89
2022/03/29 04:11:16;;;;;;;33.57;14.77;;;6.70;97.30;;;;;;5010224;28;20728;-89
2022/03/29 04:13:42;;;;;;;39.53;14.80;;;6.70;97.30;;;;;;5010662;28;20177;-89
2022/03/29 04:16:07;;;;;;;34.57;13.07;;;6.70;97.30;;;;;;5009712;28;20304;-88
2022/03/29 04:18:32;;;;;;;42.43;15.53;;;6.60;97.30;;;;;;4991914;28;20258;-88
2022/03/29 04:20:58;;;;;;;37.10;13.10;;;6.60;97.30;;;;;;4990610;28;20269;-89
2022/03/29 04:23:24;;;;;;;30.70;13.23;;;6.60;97.30;;;;;;4993650;28;20176;-89
2022/03/29 04:25:49;;;;;;;34.10;13.10;;;6.60;97.30;;;;;;4992800;28;20185;-89
2022/03/29 04:28:15;;;;;;;31.50;12.17;;;6.50;97.30;;;;;;4990563;28;20194;-89
2022/03/29 04:30:40;;;;;;;25.33;13.03;;;6.50;97.30;;;;;;4990272;28;20184;-89
2022/03/29 04:33:06;;;;;;;30.13;12.70;;;6.40;97.30;;;;;;5006903;28;20182;-88
2022/03/29 04:35:32;;;;;;;37.47;13.40;;;6.40;97.30;;;;;;4990611;28;20273;-86
2022/03/29 04:37:57;;;;;;;40.07;12.90;;;6.30;97.30;;;;;;4990675;28;20197;-89
2022/03/29 04:40:23;;;;;;;39.93;13.50;;;6.30;97.30;;;;;;4990386;28;20924;-89
2022/03/29 04:42:50;;;;;;;36.60;14.60;;;6.20;97.30;;;;;;4992004;28;20229;-90
2022/03/29 04:45:17;;;;;;;35.80;13.53;;;6.20;97.30;;;;;;4990241;28;20216;-89
2022/03/29 04:47:44;;;;;;;39.03;15.33;;;6.10;97.30;;;;;;4990221;28;20452;-89
2022/03/29 04:50:11;;;;;;;33.73;13.50;;;6.10;97.30;;;;;;4992193;28;20437;-85
2022/03/29 04:52:39;;;;;;;37.83;13.20;;;6.10;97.30;;;;;;4990472;28;20457;-89
2022/03/29 04:55:06;;;;;;;36.53;14.20;;;6.00;97.30;;;;;;4990469;28;20453;-86
2022/03/29 04:57:32;;;;;;;37.43;13.97;;;6.00;97.30;;;;;;4991173;28;20467;-89
2022/03/29 04:59:58;;;;;;;42.47;13.80;;;6.00;97.30;;;;;;4990662;28;20436;-88
2022/03/29 05:02:24;;;;;;;38.83;13.53;;;6.00;97.30;;;;;;4993415;28;20417;-88
2022/03/29 05:04:51;;;;;;;37.33;14.37;;;6.00;97.30;;;;;;4995627;28;20436;-87
2022/03/29 05:07:17;;;;;;;36.70;15.33;;;6.00;97.30;;;;;;5003243;28;20448;-89
2022/03/29 05:09:42;;;;;;;47.67;17.40;;;5.90;97.30;;;;;;4993921;28;20444;-88
2022/03/29 05:12:08;;;;;;;53.13;17.50;;;5.90;97.30;;;;;;4999635;28;20416;-89
2022/03/29 05:14:34;;;;;;;40.60;17.10;;;5.90;97.30;;;;;;4992129;28;20236;-90
2022/03/29 05:17:00;;;;;;;43.77;17.50;;;5.90;97.30;;;;;;4991442;28;20217;-89
2022/03/29 05:19:26;;;;;;;50.73;20.10;;;5.90;97.30;;;;;;5006762;28;20495;-90
2022/03/29 05:21:52;;;;;;;46.90;18.10;;;5.90;97.30;;;;;;4986444;28;20174;-89
2022/03/29 05:24:17;;;;;;;59.40;18.10;;;5.90;97.30;;;;;;4981714;28;20568;-89
2022/03/29 05:26:43;;;;;;;55.97;18.93;;;5.90;97.30;;;;;;4992245;28;20178;-89
2022/03/29 05:29:09;;;;;;;51.33;18.80;;;5.90;97.30;;;;;;4988826;28;20216;-89
2022/03/29 05:31:34;;;;;;;39.40;15.33;;;5.90;97.30;;;;;;4985521;28;20244;-89
2022/03/29 05:34:00;;;;;;;44.30;16.70;;;5.90;97.30;;;;;;4982407;28;20412;-88
2022/03/29 05:36:25;;;;;;;49.67;18.27;;;5.90;97.30;;;;;;4984494;28;20289;-89
2022/03/29 05:38:52;;;;;;;47.27;17.50;;;6.00;97.30;;;;;;4985780;28;20194;-87
2022/03/29 05:41:21;;;;;;;44.47;17.00;;;6.00;97.30;;;;;;4978380;28;20260;-91
2022/03/29 05:43:48;;;;;;;43.60;17.40;;;6.00;97.30;;;;;;4982536;28;20426;-90
2022/03/29 05:48:59;;;;;;;46.67;16.83;;;6.00;97.30;;;;;;4979178;28;20580;-88
2022/03/29 05:51:27;;;;;;;41.00;14.70;;;6.00;97.30;;;;;;4987997;28;20501;-87
2022/03/29 05:53:54;;;;;;;41.83;16.77;;;6.00;97.30;;;;;;4990879;28;20425;-89
2022/03/29 05:56:21;;;;;;;39.30;14.10;;;6.00;97.30;;;;;;4990992;28;20425;-89
2022/03/29 05:58:46;;;;;;;41.57;16.30;;;6.00;97.30;;;;;;4977041;28;20437;-90
2022/03/29 06:01:12;;;;;;;40.23;16.53;;;6.00;97.30;;;;;;4978889;28;20929;-89
2022/03/29 06:03:38;;;;;;;37.17;15.73;;;6.00;97.30;;;;;;4984546;28;20709;-89
2022/03/29 06:06:03;;;;;;;41.63;15.90;;;6.10;97.30;;;;;;4984965;28;20240;-89
2022/03/29 06:08:29;;;;;;;41.57;15.77;;;6.10;97.30;;;;;;4982318;28;20206;-91
2022/03/29 06:10:55;;;;;;;43.00;16.20;;;6.00;97.30;;;;;;4985127;28;20565;-89
2022/03/29 06:13:21;;;;;;;44.27;16.50;;;6.10;97.30;;;;;;4988194;28;20421;-90
2022/03/29 06:15:46;;;;;;;42.43;15.80;;;6.10;97.30;;;;;;5005008;28;21163;-89
2022/03/29 06:18:12;;;;;;;45.17;16.90;;;6.10;97.30;;;;;;4994165;28;20204;-89
2022/03/29 06:20:38;;;;;;;44.80;17.13;;;6.10;97.30;;;;;;4985006;28;20284;-89
2022/03/29 06:23:04;;;;;;;42.60;16.07;;;6.00;97.30;;;;;;4981916;28;20630;-90
2022/03/29 06:25:32;;;;;;;47.27;16.70;;;6.10;97.30;;;;;;4979953;28;20738;-89
2022/03/29 06:27:57;;;;;;;40.10;15.73;;;6.10;97.30;;;;;;4982146;28;20477;-89
2022/03/29 06:30:23;;;;;;;46.20;16.30;;;6.10;97.30;;;;;;4984025;28;20417;-89
2022/03/29 06:32:51;;;;;;;45.07;16.50;;;6.00;97.30;;;;;;4973513;28;20426;-89
2022/03/29 06:35:21;;;;;;;41.77;16.10;;;6.10;97.30;;;;;;4993337;28;20205;-90
2022/03/29 06:37:49;;;;;;;46.23;17.67;;;6.10;97.30;;;;;;5004868;28;20417;-89
2022/03/29 06:40:14;;;;;;;36.40;15.00;;;6.10;97.30;;;;;;5004594;28;20424;-89
2022/03/29 06:42:40;;;;;;;45.47;15.83;;;6.10;97.30;;;;;;5005033;28;20429;-89
2022/03/29 06:45:07;;;;;;;39.23;15.17;;;6.10;97.30;;;;;;5004566;28;20314;-89
2022/03/29 06:47:33;;;;;;;43.53;14.80;;;6.20;97.30;;;;;;5004698;28;20197;-87
2022/03/29 06:49:58;;;;;;;45.00;15.60;;;6.20;97.30;;;;;;5004643;28;20580;-89
2022/03/29 06:52:26;;;;;;;42.33;16.00;;;6.20;97.30;;;;;;5004668;28;20668;-89
2022/03/29 06:54:52;;;;;;;48.20;17.00;;;6.20;97.30;;;;;;4984297;28;20205;-90
2022/03/29 06:57:18;;;;;;;43.73;16.83;;;6.20;97.30;;;;;;5000488;28;21031;-91
2022/03/29 06:59:43;;;;;;;48.37;16.47;;;6.20;97.30;;;;;;4988494;28;20578;-89
2022/03/29 07:02:09;;;;;;;46.30;16.27;;;6.20;97.30;;;;;;4993396;28;20217;-89
2022/03/29 07:04:34;;;;;;;43.73;17.67;;;6.20;97.30;;;;;;4998781;28;20219;-90
2022/03/29 07:07:00;;;;;;;55.13;19.03;;;6.20;97.30;;;;;;5004600;28;20182;-89
2022/03/29 07:12:12;;;;;;;38.30;15.40;;;6.20;97.30;;;;;;4989432;28;20633;-91
2022/03/29 07:14:37;;;;;;;38.27;15.33;;;6.30;97.30;;;;;;5004003;28;20487;-89
2022/03/29 07:17:05;;;;;;;42.17;15.57;;;6.40;97.30;;;;;;5007985;28;21001;-89
2022/03/29 07:19:31;;;;;;;38.23;15.10;;;6.40;97.30;;;;;;5007385;28;20275;-89
2022/03/29 07:21:56;;;;;;;44.07;17.00;;;6.50;97.30;;;;;;5002989;28;20464;-90
2022/03/29 07:24:22;;;;;;;40.80;15.50;;;6.50;97.30;;;;;;5004290;28;20280;-89
2022/03/29 07:26:48;;;;;;;43.80;17.40;;;6.60;97.30;;;;;;4988259;28;20193;-89
2022/03/29 07:29:13;;;;;;;39.60;15.53;;;6.60;97.30;;;;;;4989425;28;20198;-89
2022/03/29 07:31:39;;;;;;;42.70;16.30;;;6.70;97.30;;;;;;5004433;28;20837;-89
2022/03/29 07:34:05;;;;;;;38.90;15.73;;;6.70;97.30;;;;;;4990798;28;20644;-88
2022/03/29 07:36:31;;;;;;;36.73;14.20;;;6.70;97.30;;;;;;4991549;28;20212;-89
2022/03/29 07:38:56;;;;;;;30.67;13.17;;;6.70;97.30;;;;;;4992962;28;20739;-89
2022/03/29 07:41:22;;;;;;;39.30;14.50;;;6.70;97.30;;;;;;5007704;28;20241;-89
2022/03/29 07:43:47;;;;;;;33.03;13.60;;;6.70;97.30;;;;;;4991404;28;20578;-88
2022/03/29 07:46:13;;;;;;;36.97;14.20;;;6.70;97.30;;;;;;4991392;28;20653;-89
2022/03/29 07:48:39;;;;;;;37.67;15.07;;;6.80;97.30;;;;;;4991087;28;20241;-89
2022/03/29 07:51:05;;;;;;;40.03;14.50;;;6.80;97.30;;;;;;4991311;28;20190;-89
2022/03/29 07:53:31;;;;;;;32.73;13.00;;;6.90;97.30;;;;;;4992043;28;20180;-89
2022/03/29 07:55:57;;;;;;;34.00;14.03;;;7.00;97.30;;;;;;4991105;28;20468;-89
2022/03/29 07:58:23;;;;;;;30.77;13.13;;;7.10;97.30;;;;;;4992304;28;20193;-89
2022/03/29 08:00:53;;;;;;;34.83;14.40;;;7.10;97.30;;;;;;5007202;28;20182;-90
2022/03/29 08:03:21;;;;;;;41.83;16.17;;;7.10;97.30;;;;;;4991238;28;20957;-89
2022/03/29 08:05:50;;;;;;;29.10;12.13;;;7.10;97.30;;;;;;4991029;28;20429;-89
2022/03/29 08:08:17;;;;;;;37.90;14.13;;;7.10;97.30;;;;;;4991211;28;20433;-89
2022/03/29 08:10:45;;;;;;;35.90;14.50;;;7.10;97.30;;;;;;4990841;28;20486;-91
2022/03/29 08:13:11;;;;;;;39.10;15.00;;;7.10;97.30;;;;;;4990698;28;20824;-87
2022/03/29 08:15:38;;;;;;;40.10;14.57;;;7.10;97.30;;;;;;4991430;28;20469;-88
2022/03/29 08:18:04;;;;;;;39.00;15.77;;;7.10;97.30;;;;;;5003505;28;20481;-89
2022/03/29 08:20:30;;;;;;;38.27;16.07;;;7.20;97.30;;;;;;5009995;28;20562;-89
2022/03/29 08:23:00;;;;;;;41.27;16.70;;;7.20;97.30;;;;;;4997772;28;20621;-88
2022/03/29 08:25:26;;;;;;;35.90;13.80;;;7.30;97.30;;;;;;5006706;28;20181;-86
2022/03/29 08:27:54;;;;;;;44.63;16.40;;;7.30;97.30;;;;;;4991488;28;20413;-88
2022/03/29 08:30:19;;;;;;;46.47;17.33;;;7.40;97.30;;;;;;5006567;28;20425;-87
2022/03/29 08:32:45;;;;;;;41.37;15.83;;;7.60;97.30;;;;;;4990521;28;20444;-87
2022/03/29 08:35:12;;;;;;;46.90;15.00;;;7.70;97.30;;;;;;5006353;28;20208;-87
2022/03/29 08:37:39;;;;;;;39.73;15.33;;;7.70;97.30;;;;;;5006568;28;20559;-86
2022/03/29 08:40:07;;;;;;;43.00;15.27;;;7.70;97.30;;;;;;5006206;28;20464;-86
2022/03/29 08:42:32;;;;;;;35.97;14.97;;;7.70;97.30;;;;;;5006228;28;20425;-86
2022/03/29 08:44:59;;;;;;;37.73;15.10;;;7.80;97.30;;;;;;5005366;28;20429;-86
2022/03/29 08:47:25;;;;;;;41.67;15.17;;;7.90;97.30;;;;;;5006393;28;20594;-86
2022/03/29 08:49:51;;;;;;;35.60;14.50;;;7.90;97.30;;;;;;4991220;28;20468;-88
2022/03/29 08:52:20;;;;;;;38.30;14.00;;;8.00;97.30;;;;;;4991273;28;20448;-87
2022/03/29 08:54:46;;;;;;;35.73;14.70;;;8.10;97.30;;;;;;5006312;28;20289;-88
2022/03/29 08:57:12;;;;;;;36.60;16.00;;;8.20;97.30;;;;;;5006277;28;20517;-87
2022/03/29 08:59:40;;;;;;;32.57;13.37;;;8.20;97.30;;;;;;5005910;28;20606;-88
2022/03/29 09:02:15;;;;;;;34.70;13.97;;;8.20;97.30;;;;;;4991316;28;20433;-87
2022/03/29 09:04:41;;;;;;;44.37;15.90;;;8.20;97.30;;;;;;5005949;28;20423;-87
2022/03/29 09:07:07;;;;;;;30.90;14.40;;;8.20;97.30;;;;;;5005924;28;20412;-87
2022/03/29 09:09:41;;;;;;;35.53;13.67;;;8.20;97.30;;;;;;4990100;28;20553;-87
2022/03/29 09:12:16;;;;;;;42.87;16.40;;;8.20;97.30;;;;;;5005810;28;20181;-88
2022/03/29 09:14:59;;;;;;;38.37;16.57;;;8.30;97.30;;;;;;5005715;28;20986;-86
2022/03/29 09:17:27;;;;;;;40.33;15.63;;;8.40;97.30;;;;;;5009081;28;20757;-86
2022/03/29 09:19:55;;;;;;;34.17;13.67;;;8.40;97.30;;;;;;5008784;28;20483;-86
2022/03/29 09:22:55;;;;;;;43.60;14.97;;;8.50;97.30;;;;;;5000960;28;20452;-87
2022/03/29 09:25:34;;;;;;;37.03;14.70;;;8.60;97.30;;;;;;4968258;28;20852;-87
2022/03/29 09:28:09;;;;;;;38.20;15.10;;;8.60;97.30;;;;;;4990920;28;20575;-87
2022/03/29 09:30:40;;;;;;;29.50;13.93;;;8.50;97.30;;;;;;4989036;28;20893;-88
2022/03/29 09:33:12;;;;;;;39.90;13.30;;;8.50;97.30;;;;;;4989367;28;20462;-87
2022/03/29 09:36:08;;;;;;;34.40;13.27;;;8.40;97.30;;;;;;4988772;28;20461;-88
2022/03/29 09:38:45;;;;;;;39.53;14.50;;;8.40;97.30;;;;;;4983281;28;20441;-88
2022/03/29 09:41:26;;;;;;;41.43;15.23;;;8.50;97.30;;;;;;4990262;28;20520;-88
2022/03/29 09:44:10;;;;;;;39.10;14.90;;;8.60;97.30;;;;;;4988979;28;20413;-87
2022/03/29 09:46:52;;;;;;;41.03;15.10;;;8.60;97.30;;;;;;4988763;28;20830;-86
2022/03/29 09:49:20;;;;;;;33.27;14.57;;;8.80;97.30;;;;;;4989083;28;20469;-88
2022/03/29 09:51:45;;;;;;;34.23;12.83;;;8.80;97.00;;;;;;4988800;28;20421;-88
2022/03/29 09:54:11;;;;;;;42.43;15.07;;;8.90;97.10;;;;;;4989016;28;20460;-88
2022/03/29 09:56:37;;;;;;;40.33;15.10;;;9.00;96.90;;;;;;4989024;28;20468;-86
2022/03/29 09:59:14;;;;;;;39.20;16.43;;;9.10;96.40;;;;;;5004819;28;20194;-88
2022/03/29 10:01:47;;;;;;;43.23;15.77;;;9.00;96.20;;;;;;4988776;28;20663;-87
2022/03/29 10:04:15;;;;;;;39.27;14.60;;;8.90;96.40;;;;;;4989969;28;20409;-87
2022/03/29 10:06:42;;;;;;;38.47;14.80;;;9.00;97.10;;;;;;4990091;28;20496;-87
2022/03/29 10:09:27;;;;;;;30.93;12.93;;;9.10;96.80;;;;;;5005221;28;20962;-87
2022/03/29 10:11:58;;;;;;;33.87;13.87;;;9.20;97.00;;;;;;4988505;28;20413;-87
2022/03/29 10:14:25;;;;;;;39.13;15.40;;;9.40;96.60;;;;;;4988915;28;20975;-87
2022/03/29 10:16:55;;;;;;;38.10;15.50;;;9.40;95.90;;;;;;4991525;28;20429;-89
2022/03/29 10:19:21;;;;;;;35.13;14.03;;;9.40;96.00;;;;;;5008474;28;20561;-87
2022/03/29 10:21:47;;;;;;;37.90;15.03;;;9.30;96.40;;;;;;5005005;28;20421;-88
2022/03/29 10:24:14;;;;;;;34.13;13.90;;;9.40;96.50;;;;;;5004750;28;20397;-88
2022/03/29 10:26:45;;;;;;;38.27;13.97;;;9.40;96.10;;;;;;4988311;28;20178;-87
2022/03/29 10:29:11;;;;;;;35.20;15.17;;;9.40;96.00;;;;;;4988335;28;20519;-87
2022/03/29 10:31:53;;;;;;;35.57;14.37;;;9.60;96.50;;;;;;4988653;28;20992;-87
2022/03/29 10:34:30;;;;;;;37.60;15.63;;;9.70;96.00;;;;;;5004927;28;20617;-88
2022/03/29 10:37:16;;;;;;;35.60;14.47;;;9.90;95.80;;;;;;4988182;28;20438;-88
2022/03/29 10:39:45;;;;;;;44.07;16.77;;;10.00;94.50;;;;;;4988541;28;20974;-87
2022/03/29 10:42:31;;;;;;;33.67;14.07;;;9.90;94.50;;;;;;4988165;28;20458;-87
2022/03/29 10:45:16;;;;;;;30.37;14.03;;;9.90;94.80;;;;;;4988102;28;20420;-88
2022/03/29 10:47:47;;;;;;;36.73;16.30;;;9.90;94.70;;;;;;4989943;28;20465;-87
2022/03/29 10:50:15;;;;;;;43.23;15.90;;;9.70;94.80;;;;;;4987952;28;20887;-87
2022/03/29 10:52:43;;;;;;;37.83;15.40;;;9.70;95.40;;;;;;4988180;28;20451;-86
2022/03/29 10:55:25;;;;;;;38.37;16.07;;;9.60;95.40;;;;;;4988177;28;20475;-86
2022/03/29 10:58:14;;;;;;;43.23;16.87;;;9.60;95.20;;;;;;5004363;28;20436;-86
2022/03/29 11:00:46;;;;;;;39.90;14.80;;;9.70;94.80;;;;;;4988276;28;20567;-88
2022/03/29 11:03:22;;;;;;;33.67;15.30;;;9.70;94.80;;;;;;4988012;28;20431;-87
2022/03/29 11:06:08;;;;;;;42.10;15.10;;;9.70;94.70;;;;;;4989196;28;20412;-88
2022/03/29 11:08:36;;;;;;;35.83;15.23;;;9.90;94.60;;;;;;4992190;28;20432;-88
2022/03/29 11:11:03;;;;;;;43.20;17.17;;;10.00;94.70;;;;;;4991853;28;20420;-88
2022/03/29 11:13:34;;;;;;;37.53;15.50;;;10.00;94.30;;;;;;4991611;28;20939;-87
2022/03/29 11:16:19;;;;;;;42.50;17.73;;;10.10;94.70;;;;;;4993438;28;20560;-86
2022/03/29 11:18:45;;;;;;;36.97;16.63;;;10.20;94.20;;;;;;5009277;28;20467;-87
2022/03/29 11:21:31;;;;;;;48.10;15.63;;;10.30;93.80;;;;;;5011404;28;20411;-87
2022/03/29 11:23:59;;;;;;;41.70;16.80;;;10.60;92.80;;;;;;4972024;28;20533;-87
2022/03/29 11:26:24;;;;;;;37.60;16.20;;;10.70;93.10;;;;;;4973369;28;20421;-86
2022/03/29 11:28:53;;;;;;;38.67;15.87;;;10.70;92.70;;;;;;4973074;28;20512;-87
2022/03/29 11:31:20;;;;;;;39.50;17.43;;;10.80;92.50;;;;;;4972372;28;20193;-87
2022/03/29 11:33:49;;;;;;;37.23;15.13;;;10.80;92.40;;;;;;4972007;28;20421;-87
2022/03/29 11:36:17;;;;;;;38.20;16.07;;;10.90;92.00;;;;;;4972233;28;20461;-87
2022/03/29 11:38:44;;;;;;;36.40;16.90;;;11.20;92.00;;;;;;4972180;28;20441;-87
2022/03/29 11:41:25;;;;;;;39.77;17.27;;;11.40;91.00;;;;;;4972025;28;20522;-87
2022/03/29 11:44:03;;;;;;;34.80;16.10;;;11.40;90.60;;;;;;4987702;28;20425;-89
2022/03/29 11:46:49;;;;;;;41.13;17.23;;;11.30;90.50;;;;;;4973459;28;20428;-87
2022/03/29 11:49:20;;;;;;;37.83;16.50;;;11.20;91.30;;;;;;4971855;28;20440;-87
2022/03/29 11:52:08;;;;;;;41.83;18.23;;;11.40;91.60;;;;;;4972202;28;20437;-86
2022/03/29 11:54:48;;;;;;;40.33;15.30;;;11.70;91.60;;;;;;4971404;28;20453;-89
2022/03/29 11:57:26;;;;;;;36.27;15.33;;;11.80;89.60;;;;;;4971607;28;20417;-88
2022/03/29 11:59:53;;;;;;;45.60;18.00;;;11.80;89.50;;;;;;4971253;28;20442;-89
2022/03/29 12:02:21;;;;;;;38.93;16.90;;;11.80;90.00;;;;;;4973170;28;20445;-87
2022/03/29 12:04:48;;;;;;;37.97;16.60;;;12.10;91.20;;;;;;4972720;28;20437;-89
2022/03/29 12:07:14;;;;;;;39.60;16.53;;;12.40;89.10;;;;;;4971502;28;20450;-87
2022/03/29 12:09:47;;;;;;;39.80;16.20;;;12.50;88.00;;;;;;4971032;28;20863;-88
2022/03/29 12:12:14;;;;;;;40.50;17.27;;;12.50;88.00;;;;;;4971143;28;20512;-88
2022/03/29 12:14:40;;;;;;;45.27;17.47;;;12.30;88.70;;;;;;4971245;28;21026;-88
2022/03/29 12:17:08;;;;;;;39.10;16.17;;;12.20;88.60;;;;;;4981227;28;20462;-87
2022/03/29 12:19:35;;;;;;;35.80;16.43;;;12.30;88.90;;;;;;5009795;28;20475;-88
2022/03/29 12:22:06;;;;;;;44.93;16.77;;;12.60;88.80;;;;;;5005020;28;20456;-87
2022/03/29 12:24:36;;;;;;;37.97;16.47;;;12.90;87.30;;;;;;5006627;28;20452;-87
2022/03/29 12:27:10;;;;;;;33.93;16.57;;;13.10;86.90;;;;;;4988159;28;20433;-87
2022/03/29 12:29:42;;;;;;;39.83;18.37;;;13.20;86.40;;;;;;4994571;28;20443;-87
2022/03/29 12:32:08;;;;;;;41.20;16.17;;;13.20;85.80;;;;;;5017730;28;20959;-87
2022/03/29 12:34:34;;;;;;;43.63;17.13;;;13.20;85.90;;;;;;5007178;28;20451;-86
2022/03/29 12:37:03;;;;;;;40.53;17.53;;;13.10;85.60;;;;;;5029617;28;20420;-86
2022/03/29 12:39:37;;;;;;;39.60;15.80;;;13.20;86.70;;;;;;5013206;28;20434;-86
2022/03/29 12:42:04;;;;;;;39.53;17.40;;;13.30;85.20;;;;;;4988704;28;20416;-86
2022/03/29 12:44:37;;;;;;;35.00;16.07;;;13.40;84.70;;;;;;5003795;28;20829;-85
2022/03/29 12:47:04;;;;;;;43.70;16.33;;;13.50;85.80;;;;;;5022393;28;20520;-86